»·PEaware :: N1XC KSBA-KBUR

N1XC :: KSBA-KBUR

FLIGHT INFORMATION

Flight Status: Arrived
Operator: Privately registered:
United States
More flights under this callsign
Pilot: Adam S. (8156)
Aircraft: CESSNA T210 TURBO CENTURION
(T210)
More flights by this aircraft type
Origin: KSBA Santa Barbara Mun
United States
Destination: KBUR Bob Hope-Burbank
United States
More flights between these airports :: More routes between these airports
Route: +
File this flight plan on PilotEdge
Remarks: CAT8
Altitude:
(Current/Filed)
6,500ft
Speed:
(Current/Filed)
0kts
Departed: 28-Aug-17 10:34 AM
Arrived: 28-Aug-17 11:12 AM
Distance/Time
Traveled:
75nm/0:38
Distance/Time
To Go:
Arrived

Flight Plot

Page will automatically refresh every two minutes.


Map Options




Map Legend


Flown Route
Filed Route
Departure Airport
Arrival Airport
Navaid (VOR, NDB)
Fix

Horizontal Profiles

Position Reports

Time Latitude Longitude Heading Altitude Ground
Speed
28-Aug-17 10:27 34.423067 -119.836083 160 17ft 0kts
28-Aug-17 10:28 34.423067 -119.836083 160 17ft 0kts
28-Aug-17 10:29 34.423067 -119.836082 160 17ft 0kts
28-Aug-17 10:30 34.423067 -119.836082 160 17ft 0kts
28-Aug-17 10:31 34.423067 -119.836083 160 17ft 0kts
28-Aug-17 10:32 34.423067 -119.836083 160 17ft 0kts
28-Aug-17 10:33 34.423067 -119.836083 160 17ft 0kts
28-Aug-17 10:34 34.422579 -119.836707 300 17ft 5kts
28-Aug-17 10:35 34.426735 -119.837496 95 17ft 23kts
28-Aug-17 10:36 34.427237 -119.834425 352 17ft 0kts
28-Aug-17 10:37 34.427237 -119.834425 352 17ft 0kts
28-Aug-17 10:38 34.427575 -119.849693 260 247ft 82kts
28-Aug-17 10:39 34.431157 -119.876185 261 1042ft 78kts
28-Aug-17 10:40 34.430197 -119.906178 276 1395ft 80kts
28-Aug-17 10:41 34.440045 -119.930385 299 2064ft 79kts
28-Aug-17 10:42 34.452384 -119.956807 271 3019ft 98kts
28-Aug-17 10:43 34.453538 -119.993182 265 4070ft 118kts
28-Aug-17 10:44 34.432605 -120.004801 112 5040ft 115kts
28-Aug-17 10:45 34.436413 -119.963783 88 5492ft 150kts
28-Aug-17 10:46 34.433042 -119.911141 96 5486ft 164kts
28-Aug-17 10:47 34.425973 -119.856784 98 5487ft 166kts
28-Aug-17 10:48 34.418443 -119.802477 98 5485ft 166kts
28-Aug-17 10:49 34.410992 -119.751256 98 5898ft 154kts
28-Aug-17 10:50 34.403855 -119.702366 98 6434ft 149kts
28-Aug-17 10:51 34.396132 -119.650076 98 6462ft 166kts
28-Aug-17 10:52 34.388188 -119.595725 98 6468ft 167kts
28-Aug-17 10:53 34.380203 -119.540515 97 6472ft 168kts
28-Aug-17 10:54 34.372071 -119.484911 99 6331ft 173kts
28-Aug-17 10:55 34.363398 -119.426744 98 5839ft 181kts
28-Aug-17 10:56 34.354732 -119.367909 98 5450ft 176kts
28-Aug-17 10:57 34.347590 -119.319771 99 5450ft 168kts
28-Aug-17 10:58 34.339507 -119.265590 99 5448ft 167kts
28-Aug-17 10:59 34.331284 -119.210509 97 5446ft 167kts
28-Aug-17 11:00 34.323117 -119.155654 99 5449ft 167kts
28-Aug-17 11:01 34.314777 -119.100289 98 5449ft 168kts
28-Aug-17 11:02 34.306469 -119.045164 98 5449ft 168kts
28-Aug-17 11:03 34.298105 -118.989838 98 5448ft 168kts
28-Aug-17 11:04 34.289753 -118.934854 98 5448ft 168kts
28-Aug-17 11:05 34.281279 -118.879444 98 5449ft 169kts
28-Aug-17 11:06 34.272833 -118.824010 98 5466ft 168kts
28-Aug-17 11:07 34.264341 -118.768625 98 5414ft 171kts
28-Aug-17 11:08 34.255602 -118.711739 98 4980ft 183kts
28-Aug-17 11:09 34.246246 -118.650891 100 4367ft 192kts
28-Aug-17 11:10 34.236753 -118.589550 100 3781ft 193kts
28-Aug-17 11:11 34.227471 -118.530362 100 3037ft 176kts
28-Aug-17 11:12 34.219829 -118.480966 100 2034ft 154kts
28-Aug-17 11:13 34.209658 -118.443096 136 1897ft 117kts
28-Aug-17 11:14 34.197716 -118.413734 89 1494ft 110kts
28-Aug-17 11:15 34.198036 -118.378220 89 961ft 101kts
28-Aug-17 11:16 34.197429 -118.358157 140 734ft 16kts
28-Aug-17 11:17 34.196420 -118.357135 158 734ft 15kts

Navigation Log

Ident Type
Flight plan parsing failed, navigation log unavailable